Time;durP1;ratioP1;P1;durP2;ratioP2;P2;SDS_P1;SDS_P2;PMS_P1;PMS_P2;Temp;Humidity;BMP_temperature;BMP_pressure;BME280_temperature;BME280_humidity;BME280_pressure;Samples;Min_cycle;Max_cycle;Signal;HPM_P1;HPM_P2
2022/09/25 00:00:09;;;;;;;2.85;2.65;;;;;;;;;;2086955;28;20036;-79
2022/09/25 00:01:28;;;;;;;2.58;2.38;;;;;;;;;;2088985;28;20041;-79
2022/09/25 00:02:47;;;;;;;3.22;2.80;;;;;;;;;;2088315;28;20399;-79
2022/09/25 00:04:06;;;;;;;3.65;2.50;;;;;;;;;;2086140;28;20057;-79
2022/09/25 00:05:24;;;;;;;3.33;2.63;;;;;;;;;;2085059;28;20032;-79
2022/09/25 00:06:45;;;;;;;2.95;2.70;;;;;;;;;;2086633;28;20050;-79
2022/09/25 00:08:04;;;;;;;3.38;2.67;;;;;;;;;;2088803;28;20076;-79
2022/09/25 00:09:23;;;;;;;2.30;2.10;;;;;;;;;;2085026;28;20033;-79
2022/09/25 00:10:44;;;;;;;2.90;2.60;;;;;;;;;;2088967;28;20037;-79
2022/09/25 00:12:02;;;;;;;4.90;2.38;;;;;;;;;;2090830;28;20041;-79
2022/09/25 00:13:22;;;;;;;3.05;2.40;;;;;;;;;;2087380;28;20033;-79
2022/09/25 00:14:41;;;;;;;2.25;2.15;;;;;;;;;;2088843;28;20029;-79
2022/09/25 00:16:01;;;;;;;2.38;2.17;;;;;;;;;;2088248;28;20116;-79
2022/09/25 00:17:20;;;;;;;2.58;2.38;;;;;;;;;;2087091;28;20025;-79
2022/09/25 00:20:19;;;;;;;3.85;2.75;;;;;;;;;;2087519;28;20029;-79
2022/09/25 00:21:38;;;;;;;3.50;3.17;;;;;;;;;;2087860;28;20029;-79
2022/09/25 00:23:01;;;;;;;3.45;2.80;;;;;;;;;;2086363;28;20056;-79
2022/09/25 00:24:21;;;;;;;3.15;2.88;;;;;;;;;;2086518;28;20034;-79
2022/09/25 00:25:40;;;;;;;2.72;2.53;;;;;;;;;;2087071;28;20498;-79
2022/09/25 00:26:59;;;;;;;2.67;2.47;;;;;;;;;;2087023;28;20025;-79
2022/09/25 00:28:18;;;;;;;5.35;2.80;;;;;;;;;;2088313;28;20021;-79
2022/09/25 00:29:38;;;;;;;2.97;2.30;;;;;;;;;;2086713;28;20498;-79
2022/09/25 00:30:57;;;;;;;4.40;2.22;;;;;;;;;;2087628;28;20025;-79
2022/09/25 00:32:16;;;;;;;4.03;1.92;;;;;;;;;;2088545;28;20393;-79
2022/09/25 00:33:36;;;;;;;3.17;2.20;;;;;;;;;;2087725;28;20036;-79
2022/09/25 00:34:54;;;;;;;3.03;2.70;;;;;;;;;;2085581;28;20029;-79
2022/09/25 00:36:13;;;;;;;3.65;2.10;;;;;;;;;;2086846;28;20029;-79
2022/09/25 00:37:33;;;;;;;1.90;1.80;;;;;;;;;;2087741;28;20041;-79
2022/09/25 00:38:53;;;;;;;2.65;2.28;;;;;;;;;;2088836;28;20029;-79
2022/09/25 00:40:12;;;;;;;2.13;2.00;;;;;;;;;;2086776;28;20389;-79
2022/09/25 00:41:31;;;;;;;2.55;2.20;;;;;;;;;;2086105;28;20060;-79
2022/09/25 00:42:50;;;;;;;3.72;2.70;;;;;;;;;;2087773;28;20057;-79
2022/09/25 00:44:28;;;;;;;2.40;2.20;;;;;;;;;;2087769;28;20049;-79
2022/09/25 00:45:47;;;;;;;3.63;2.35;;;;;;;;;;2088583;28;20033;-79
2022/09/25 00:47:07;;;;;;;3.05;1.95;;;;;;;;;;2085850;28;20041;-79
2022/09/25 00:48:26;;;;;;;3.55;2.28;;;;;;;;;;2094722;28;20028;-79
2022/09/25 00:49:46;;;;;;;5.85;2.92;;;;;;;;;;2087096;28;20033;-79
2022/09/25 00:51:05;;;;;;;4.30;2.50;;;;;;;;;;2086806;28;20037;-79
2022/09/25 00:52:24;;;;;;;4.15;2.15;;;;;;;;;;2086935;28;20033;-79
2022/09/25 00:53:43;;;;;;;2.63;2.45;;;;;;;;;;2087670;28;20037;-78
2022/09/25 00:55:04;;;;;;;3.20;2.38;;;;;;;;;;2085425;28;20112;-79
2022/09/25 00:56:23;;;;;;;3.30;2.60;;;;;;;;;;2085530;28;20037;-79
2022/09/25 00:57:44;;;;;;;4.50;2.60;;;;;;;;;;2086684;28;20489;-79
2022/09/25 00:59:04;;;;;;;2.63;2.42;;;;;;;;;;2088616;28;20041;-79
2022/09/25 01:00:23;;;;;;;3.42;2.85;;;;;;;;;;2088533;28;20029;-79
2022/09/25 01:01:42;;;;;;;4.30;2.13;;;;;;;;;;2087436;28;20040;-79
2022/09/25 01:03:03;;;;;;;3.78;2.92;;;;;;;;;;2083658;28;20025;-76
2022/09/25 01:04:23;;;;;;;2.67;2.47;;;;;;;;;;2087476;28;20115;-76
2022/09/25 01:05:43;;;;;;;3.95;2.83;;;;;;;;;;2085984;28;20549;-79
2022/09/25 01:07:02;;;;;;;5.32;2.63;;;;;;;;;;2086898;28;20041;-79
2022/09/25 01:08:24;;;;;;;3.03;2.75;;;;;;;;;;2087721;28;20462;-79
2022/09/25 01:09:43;;;;;;;2.85;2.65;;;;;;;;;;2086436;28;20037;-79
2022/09/25 01:11:02;;;;;;;3.15;2.70;;;;;;;;;;2086634;28;20037;-76
2022/09/25 01:12:21;;;;;;;4.13;2.70;;;;;;;;;;2088211;28;20597;-79
2022/09/25 01:13:41;;;;;;;3.10;2.80;;;;;;;;;;2086885;28;20033;-79
2022/09/25 01:15:00;;;;;;;3.65;2.95;;;;;;;;;;2087253;28;20064;-79
2022/09/25 01:16:24;;;;;;;2.83;2.63;;;;;;;;;;2087865;28;20021;-79
2022/09/25 01:17:59;;;;;;;5.00;2.63;;;;;;;;;;2088469;28;20041;-77
2022/09/25 01:19:44;;;;;;;2.97;2.70;;;;;;;;;;2088118;28;20037;-77
2022/09/25 01:21:14;;;;;;;3.17;2.65;;;;;;;;;;2086877;28;20401;-77
2022/09/25 01:22:44;;;;;;;2.83;2.55;;;;;;;;;;2087898;28;20036;-77
2022/09/25 01:24:23;;;;;;;2.90;2.70;;;;;;;;;;2088820;28;20040;-77
2022/09/25 01:26:01;;;;;;;3.45;3.00;;;;;;;;;;2084366;28;20048;-79
2022/09/25 01:27:40;;;;;;;3.33;3.03;;;;;;;;;;2087686;28;20033;-79
2022/09/25 01:29:15;;;;;;;3.17;2.95;;;;;;;;;;2086766;28;20489;-79
2022/09/25 01:30:36;;;;;;;3.85;3.22;;;;;;;;;;2087945;28;20072;-79
2022/09/25 01:31:56;;;;;;;3.80;3.20;;;;;;;;;;2086984;28;20037;-79
2022/09/25 01:33:17;;;;;;;7.18;3.58;;;;;;;;;;2087361;28;20456;-79
2022/09/25 01:34:43;;;;;;;7.72;4.40;;;;;;;;;;2088262;28;20021;-79
2022/09/25 01:36:08;;;;;;;4.22;3.85;;;;;;;;;;2087204;28;20164;-79
2022/09/25 01:37:51;;;;;;;5.00;4.63;;;;;;;;;;2088152;28;20116;-77
2022/09/25 01:39:19;;;;;;;6.27;5.77;;;;;;;;;;2087059;28;20029;-77
2022/09/25 01:40:45;;;;;;;7.20;5.55;;;;;;;;;;2086375;28;20266;-77
2022/09/25 01:42:08;;;;;;;13.00;7.15;;;;;;;;;;2083389;28;20037;-77
2022/09/25 01:43:31;;;;;;;8.30;7.53;;;;;;;;;;2084011;28;20041;-79
2022/09/25 01:44:56;;;;;;;8.38;7.65;;;;;;;;;;2088232;28;20032;-79
2022/09/25 01:46:18;;;;;;;8.50;7.70;;;;;;;;;;2087436;28;20022;-79
2022/09/25 01:47:38;;;;;;;6.07;5.50;;;;;;;;;;2087398;28;20472;-79
2022/09/25 01:48:59;;;;;;;7.30;5.35;;;;;;;;;;2086982;28;20429;-79
2022/09/25 01:50:22;;;;;;;5.45;5.00;;;;;;;;;;2087030;28;20386;-79
2022/09/25 01:51:44;;;;;;;5.45;4.95;;;;;;;;;;2086133;28;20040;-79
2022/09/25 01:53:06;;;;;;;6.15;5.57;;;;;;;;;;2086524;28;20156;-79
2022/09/25 01:54:25;;;;;;;11.30;6.22;;;;;;;;;;2087889;28;20115;-79
2022/09/25 01:55:47;;;;;;;6.03;5.43;;;;;;;;;;2086296;28;20029;-79
2022/09/25 01:57:08;;;;;;;6.45;5.93;;;;;;;;;;2090895;28;20036;-79
2022/09/25 01:58:32;;;;;;;6.82;6.15;;;;;;;;;;2084100;28;20155;-79
2022/09/25 01:59:55;;;;;;;7.03;6.43;;;;;;;;;;2087728;28;20037;-79
2022/09/25 02:01:21;;;;;;;6.93;6.43;;;;;;;;;;2087445;28;20029;-79
2022/09/25 02:02:54;;;;;;;8.88;7.55;;;;;;;;;;2086487;28;20029;-79
2022/09/25 02:04:21;;;;;;;8.93;7.40;;;;;;;;;;2084631;28;20037;-79
2022/09/25 02:05:53;;;;;;;9.23;7.57;;;;;;;;;;2087340;28;20025;-79
2022/09/25 02:07:15;;;;;;;8.93;8.02;;;;;;;;;;2087133;28;20116;-79
2022/09/25 02:08:36;;;;;;;8.25;7.50;;;;;;;;;;2088038;28;20092;-79
2022/09/25 02:09:57;;;;;;;8.23;7.53;;;;;;;;;;2087214;28;20030;-79
2022/09/25 02:11:16;;;;;;;5.70;5.30;;;;;;;;;;2086800;28;20498;-79
2022/09/25 02:12:39;;;;;;;5.75;5.30;;;;;;;;;;2086823;28;20044;-79
2022/09/25 02:14:04;;;;;;;7.60;5.13;;;;;;;;;;2088697;28;20025;-79
2022/09/25 02:15:34;;;;;;;4.93;4.43;;;;;;;;;;2096225;28;20032;-79
2022/09/25 02:16:55;;;;;;;4.60;4.20;;;;;;;;;;2095359;28;20040;-79
2022/09/25 02:21:56;;;;;;;5.28;4.80;;;;;;;;;;2088711;28;20033;-79
2022/09/25 02:23:17;;;;;;;7.78;6.78;;;;;;;;;;2089087;28;20018;-79
2022/09/25 02:24:42;;;;;;;6.47;5.88;;;;;;;;;;2096069;28;20028;-79
2022/09/25 02:26:05;;;;;;;6.28;5.72;;;;;;;;;;2087589;28;20033;-79
2022/09/25 02:27:26;;;;;;;7.60;5.90;;;;;;;;;;2088688;28;20424;-77
2022/09/25 02:28:45;;;;;;;6.22;5.80;;;;;;;;;;2089318;28;20020;-79
2022/09/25 02:30:04;;;;;;;15.50;6.60;;;;;;;;;;2089928;28;20029;-79
2022/09/25 02:31:45;;;;;;;7.63;6.93;;;;;;;;;;2088574;28;20025;-79
2022/09/25 02:33:04;;;;;;;8.00;7.20;;;;;;;;;;2095612;28;20413;-79
2022/09/25 02:34:23;;;;;;;8.23;7.30;;;;;;;;;;2092674;28;20037;-79
2022/09/25 02:35:42;;;;;;;5.90;5.40;;;;;;;;;;2088701;28;20029;-79
2022/09/25 02:37:01;;;;;;;5.75;5.25;;;;;;;;;;2087342;28;20510;-79
2022/09/25 02:38:20;;;;;;;4.93;4.25;;;;;;;;;;2085031;28;20510;-79
2022/09/25 02:39:40;;;;;;;4.78;4.43;;;;;;;;;;2089778;28;20389;-79
2022/09/25 02:41:02;;;;;;;4.50;4.15;;;;;;;;;;2085472;28;20429;-79
2022/09/25 02:42:39;;;;;;;5.45;4.28;;;;;;;;;;2087697;28;20025;-79
2022/09/25 02:44:04;;;;;;;4.70;4.30;;;;;;;;;;2088565;28;20410;-79
2022/09/25 02:45:36;;;;;;;4.70;3.92;;;;;;;;;;2089046;28;20091;-79
2022/09/25 02:47:14;;;;;;;4.10;3.80;;;;;;;;;;2085356;28;20033;-79
2022/09/25 02:48:36;;;;;;;4.32;3.85;;;;;;;;;;2088663;28;20025;-79
2022/09/25 02:49:58;;;;;;;4.78;3.65;;;;;;;;;;2089420;28;20025;-79
2022/09/25 02:51:20;;;;;;;4.55;3.67;;;;;;;;;;2090089;28;20422;-79
2022/09/25 02:52:45;;;;;;;4.15;3.80;;;;;;;;;;2088881;28;20401;-79
2022/09/25 02:54:08;;;;;;;4.03;3.60;;;;;;;;;;2087326;28;20041;-79
2022/09/25 02:55:32;;;;;;;5.20;3.83;;;;;;;;;;2087765;28;20033;-77
2022/09/25 02:56:55;;;;;;;4.90;3.80;;;;;;;;;;2086637;28;20040;-79
2022/09/25 02:58:28;;;;;;;3.65;3.40;;;;;;;;;;2088432;28;20036;-77
2022/09/25 02:59:47;;;;;;;;;;;;;;;;;;2090348;28;20120;-76
2022/09/25 03:01:07;;;;;;;3.90;3.53;;;;;;;;;;2089432;28;19916;-77
2022/09/25 03:02:27;;;;;;;4.95;3.58;;;;;;;;;;2089354;28;20029;-77
2022/09/25 03:03:48;;;;;;;3.47;3.28;;;;;;;;;;2088734;28;20028;-77
2022/09/25 03:05:10;;;;;;;4.22;3.40;;;;;;;;;;2097185;28;20024;-76
2022/09/25 03:06:29;;;;;;;4.53;3.97;;;;;;;;;;2091857;28;20029;-76
2022/09/25 03:09:26;;;;;;;4.03;3.72;;;;;;;;;;2088570;28;20040;-78
2022/09/25 03:10:45;;;;;;;4.00;3.70;;;;;;;;;;2087457;28;20017;-79
2022/09/25 03:12:04;;;;;;;4.88;4.47;;;;;;;;;;2087885;28;20485;-79
2022/09/25 03:13:32;;;;;;;4.15;3.95;;;;;;;;;;2087792;28;20069;-79
2022/09/25 03:14:52;;;;;;;4.00;3.70;;;;;;;;;;2087742;28;20070;-79
2022/09/25 03:16:14;;;;;;;5.13;3.83;;;;;;;;;;2088193;28;20044;-79
2022/09/25 03:17:33;;;;;;;3.85;3.55;;;;;;;;;;2088283;28;20033;-79
2022/09/25 03:18:52;;;;;;;4.07;3.50;;;;;;;;;;2088718;28;20025;-79
2022/09/25 03:20:11;;;;;;;5.70;4.55;;;;;;;;;;2087400;28;20037;-79
2022/09/25 03:21:31;;;;;;;3.50;3.20;;;;;;;;;;2089661;28;20041;-79
2022/09/25 03:22:50;;;;;;;4.03;3.63;;;;;;;;;;2087451;28;20013;-79
2022/09/25 03:24:09;;;;;;;4.10;3.80;;;;;;;;;;2087434;28;20025;-78
2022/09/25 03:25:28;;;;;;;4.45;4.15;;;;;;;;;;2086989;28;20038;-79
2022/09/25 03:26:47;;;;;;;5.00;4.18;;;;;;;;;;2087689;28;20025;-79
2022/09/25 03:28:08;;;;;;;5.43;4.93;;;;;;;;;;2087773;28;20414;-78
2022/09/25 03:29:28;;;;;;;4.00;3.45;;;;;;;;;;2088003;28;20116;-78
2022/09/25 03:30:57;;;;;;;5.22;4.78;;;;;;;;;;2087922;28;20490;-79
2022/09/25 03:32:16;;;;;;;6.85;5.70;;;;;;;;;;2089691;28;20037;-79
2022/09/25 03:33:37;;;;;;;6.55;5.93;;;;;;;;;;2087798;28;20021;-76
2022/09/25 03:34:56;;;;;;;6.63;6.13;;;;;;;;;;2087013;28;20041;-77
2022/09/25 03:36:17;;;;;;;7.45;6.72;;;;;;;;;;2088892;28;20104;-77
2022/09/25 03:37:37;;;;;;;8.05;7.30;;;;;;;;;;2089238;28;20486;-77
2022/09/25 03:38:57;;;;;;;8.10;7.22;;;;;;;;;;2088105;28;20029;-79
2022/09/25 03:40:16;;;;;;;8.73;7.32;;;;;;;;;;2087829;28;20029;-79
2022/09/25 03:41:35;;;;;;;9.93;7.28;;;;;;;;;;2087865;28;20037;-79
2022/09/25 03:42:54;;;;;;;7.75;7.05;;;;;;;;;;2088802;28;20048;-79
2022/09/25 03:44:13;;;;;;;9.82;5.72;;;;;;;;;;2088925;28;20033;-79
2022/09/25 03:45:32;;;;;;;6.53;6.03;;;;;;;;;;2088601;28;20025;-78
2022/09/25 03:46:51;;;;;;;7.40;5.97;;;;;;;;;;2088238;28;20033;-78
2022/09/25 03:48:10;;;;;;;5.65;5.15;;;;;;;;;;2089202;28;20021;-79
2022/09/25 03:49:29;;;;;;;5.75;5.15;;;;;;;;;;2087965;28;20029;-79
2022/09/25 03:50:49;;;;;;;5.80;5.20;;;;;;;;;;2088519;28;20490;-79
2022/09/25 03:52:11;;;;;;;4.75;4.45;;;;;;;;;;2087704;28;20061;-79
2022/09/25 03:53:32;;;;;;;5.82;5.32;;;;;;;;;;2089255;28;20033;-79
2022/09/25 03:54:51;;;;;;;7.93;7.13;;;;;;;;;;2087318;28;20029;-79
2022/09/25 03:56:11;;;;;;;8.75;7.82;;;;;;;;;;2085843;28;20504;-78
2022/09/25 03:57:30;;;;;;;9.93;8.93;;;;;;;;;;2087262;28;20111;-79
2022/09/25 03:58:50;;;;;;;10.35;9.38;;;;;;;;;;2088034;28;20095;-79
2022/09/25 04:00:09;;;;;;;12.23;9.93;;;;;;;;;;2088601;28;20506;-79
2022/09/25 04:01:28;;;;;;;13.07;11.55;;;;;;;;;;2089227;28;20486;-79
2022/09/25 04:02:47;;;;;;;13.45;10.20;;;;;;;;;;2088571;28;20130;-79
2022/09/25 04:04:06;;;;;;;9.38;8.43;;;;;;;;;;2086581;28;20025;-79
2022/09/25 04:05:25;;;;;;;9.32;8.32;;;;;;;;;;2092531;28;20029;-79
2022/09/25 04:06:44;;;;;;;9.13;7.30;;;;;;;;;;2090980;28;20026;-77
2022/09/25 04:08:03;;;;;;;9.50;6.57;;;;;;;;;;2088245;28;20028;-77
2022/09/25 04:09:22;;;;;;;8.35;7.53;;;;;;;;;;2086550;28;20025;-77
2022/09/25 04:10:41;;;;;;;6.90;6.30;;;;;;;;;;2088427;28;20017;-77
2022/09/25 04:12:00;;;;;;;7.28;6.32;;;;;;;;;;2084895;28;20025;-76
2022/09/25 04:13:20;;;;;;;4.47;4.18;;;;;;;;;;2089031;28;20033;-77
2022/09/25 04:14:42;;;;;;;5.72;5.13;;;;;;;;;;2087434;28;21257;-76
2022/09/25 04:16:03;;;;;;;5.18;4.72;;;;;;;;;;2088561;28;20038;-77
2022/09/25 04:17:22;;;;;;;4.78;4.28;;;;;;;;;;2087627;28;20474;-77
2022/09/25 04:18:41;;;;;;;4.82;4.53;;;;;;;;;;2087771;28;20128;-76
2022/09/25 04:20:01;;;;;;;7.00;6.50;;;;;;;;;;2088094;28;20063;-76
2022/09/25 04:21:19;;;;;;;7.20;6.50;;;;;;;;;;2087903;28;20029;-79
2022/09/25 04:22:38;;;;;;;7.65;6.93;;;;;;;;;;2089194;28;20033;-79
2022/09/25 04:25:35;;;;;;;7.63;6.95;;;;;;;;;;2089621;28;20060;-79
2022/09/25 04:26:54;;;;;;;6.72;6.13;;;;;;;;;;2086797;28;20490;-79
2022/09/25 04:28:13;;;;;;;7.38;6.68;;;;;;;;;;2086566;28;20064;-79
2022/09/25 04:29:32;;;;;;;7.82;7.18;;;;;;;;;;2086866;28;20037;-79
2022/09/25 04:30:51;;;;;;;7.78;7.18;;;;;;;;;;2086515;28;20025;-79
2022/09/25 04:33:48;;;;;;;7.45;6.85;;;;;;;;;;2088575;28;20021;-79
2022/09/25 04:35:07;;;;;;;8.50;6.57;;;;;;;;;;2084685;28;20033;-79
2022/09/25 04:36:26;;;;;;;7.47;6.30;;;;;;;;;;2085388;28;20053;-79
2022/09/25 04:37:45;;;;;;;7.13;6.53;;;;;;;;;;2086660;28;20965;-79
2022/09/25 04:39:04;;;;;;;5.97;5.47;;;;;;;;;;2087737;28;20040;-79
2022/09/25 04:40:22;;;;;;;5.70;5.30;;;;;;;;;;2086186;28;20041;-79
2022/09/25 04:41:42;;;;;;;5.45;5.07;;;;;;;;;;2084637;28;20563;-79
2022/09/25 04:43:03;;;;;;;5.88;5.35;;;;;;;;;;2083184;28;20032;-79
2022/09/25 04:44:22;;;;;;;6.35;5.85;;;;;;;;;;2085046;28;21041;-79
2022/09/25 04:45:41;;;;;;;7.53;5.25;;;;;;;;;;2086809;28;20041;-79
2022/09/25 04:46:59;;;;;;;6.38;5.80;;;;;;;;;;2087350;28;20033;-79
2022/09/25 04:48:18;;;;;;;6.03;5.57;;;;;;;;;;2087282;28;20429;-79
2022/09/25 04:49:37;;;;;;;5.70;5.30;;;;;;;;;;2087261;28;20033;-79
2022/09/25 04:50:57;;;;;;;6.47;5.55;;;;;;;;;;2087817;28;20072;-79
2022/09/25 04:52:16;;;;;;;6.55;6.07;;;;;;;;;;2085154;28;20583;-79
2022/09/25 04:53:35;;;;;;;6.10;5.60;;;;;;;;;;2086868;28;20063;-79
2022/09/25 04:54:55;;;;;;;7.70;7.00;;;;;;;;;;2087327;28;20033;-79
2022/09/25 04:56:14;;;;;;;7.38;6.78;;;;;;;;;;2087355;28;20033;-79
2022/09/25 04:57:32;;;;;;;6.85;6.25;;;;;;;;;;2086879;28;20037;-79
2022/09/25 04:58:51;;;;;;;7.03;6.28;;;;;;;;;;2091932;28;20032;-79
2022/09/25 05:00:15;;;;;;;9.00;8.15;;;;;;;;;;2084651;28;20065;-79
2022/09/25 05:01:34;;;;;;;7.68;6.93;;;;;;;;;;2085039;28;20045;-79
2022/09/25 05:02:54;;;;;;;7.55;6.32;;;;;;;;;;2083732;28;20029;-79
2022/09/25 05:04:14;;;;;;;7.57;6.57;;;;;;;;;;2083164;28;20041;-79
2022/09/25 05:05:34;;;;;;;6.45;5.97;;;;;;;;;;2083525;28;20374;-78
2022/09/25 05:06:53;;;;;;;6.72;6.13;;;;;;;;;;2084245;28;20020;-78
2022/09/25 05:08:12;;;;;;;7.13;6.53;;;;;;;;;;2088812;28;20025;-78
2022/09/25 05:09:31;;;;;;;9.82;9.00;;;;;;;;;;2088330;28;21033;-78
2022/09/25 05:10:50;;;;;;;9.68;8.63;;;;;;;;;;2086995;28;20033;-79
2022/09/25 05:12:08;;;;;;;10.32;9.25;;;;;;;;;;2084646;28;20056;-79
2022/09/25 05:13:27;;;;;;;9.73;8.73;;;;;;;;;;2086331;28;20579;-79
2022/09/25 05:14:46;;;;;;;9.05;8.02;;;;;;;;;;2087880;28;20025;-78
2022/09/25 05:16:05;;;;;;;7.82;7.22;;;;;;;;;;2086893;28;20382;-79
2022/09/25 05:17:24;;;;;;;8.38;6.70;;;;;;;;;;2087769;28;20025;-79
2022/09/25 05:18:43;;;;;;;6.35;5.85;;;;;;;;;;2085279;28;20029;-79
2022/09/25 05:20:02;;;;;;;5.60;5.20;;;;;;;;;;2085145;28;20025;-79
2022/09/25 05:21:21;;;;;;;4.97;4.68;;;;;;;;;;2085575;28;20410;-79
2022/09/25 05:22:40;;;;;;;5.57;4.55;;;;;;;;;;2088109;28;20029;-79
2022/09/25 05:24:00;;;;;;;4.78;4.38;;;;;;;;;;2087463;28;20469;-79
2022/09/25 05:25:22;;;;;;;5.15;4.72;;;;;;;;;;2086428;28;20112;-78
2022/09/25 05:26:41;;;;;;;6.10;4.28;;;;;;;;;;2089390;28;20095;-79
2022/09/25 05:28:00;;;;;;;4.82;4.38;;;;;;;;;;2089722;28;20025;-79
2022/09/25 05:29:19;;;;;;;4.85;4.53;;;;;;;;;;2085515;28;20081;-78
2022/09/25 05:30:38;;;;;;;4.97;4.55;;;;;;;;;;2087001;28;20111;-78
2022/09/25 05:31:57;;;;;;;5.55;5.05;;;;;;;;;;2087810;28;20025;-78
2022/09/25 05:33:17;;;;;;;6.18;5.68;;;;;;;;;;2086982;28;20052;-78
2022/09/25 05:34:36;;;;;;;9.70;7.70;;;;;;;;;;2087530;28;20025;-77
2022/09/25 05:35:59;;;;;;;7.43;6.78;;;;;;;;;;2087631;28;20502;-78
2022/09/25 05:37:18;;;;;;;17.83;6.28;;;;;;;;;;2094580;28;20024;-77
2022/09/25 05:38:38;;;;;;;7.07;6.38;;;;;;;;;;2086167;28;20021;-78
2022/09/25 05:39:56;;;;;;;8.20;7.50;;;;;;;;;;2084732;28;20029;-79
2022/09/25 05:41:16;;;;;;;7.20;6.50;;;;;;;;;;2081372;28;20029;-79
2022/09/25 05:42:35;;;;;;;8.95;7.10;;;;;;;;;;2081993;28;20025;-82
2022/09/25 05:43:54;;;;;;;7.93;7.32;;;;;;;;;;2082334;28;20124;-80
2022/09/25 05:45:14;;;;;;;8.02;7.32;;;;;;;;;;2091286;28;20025;-80
2022/09/25 05:46:32;;;;;;;9.65;7.65;;;;;;;;;;2088176;28;20033;-79
2022/09/25 05:47:59;;;;;;;15.90;7.18;;;;;;;;;;2084331;28;20030;-80
2022/09/25 05:49:19;;;;;;;6.13;5.72;;;;;;;;;;2084319;28;20684;-82
2022/09/25 05:50:38;;;;;;;8.18;7.40;;;;;;;;;;2085709;28;20037;-80
2022/09/25 05:51:57;;;;;;;7.22;6.57;;;;;;;;;;2084846;28;20832;-80
2022/09/25 05:53:15;;;;;;;6.07;5.57;;;;;;;;;;2084344;28;20040;-81
2022/09/25 05:54:34;;;;;;;8.20;6.43;;;;;;;;;;2088699;28;20017;-80
2022/09/25 05:55:54;;;;;;;5.70;5.30;;;;;;;;;;2088079;28;20402;-80
2022/09/25 05:57:13;;;;;;;4.60;4.30;;;;;;;;;;2085612;28;20029;-81
2022/09/25 05:58:33;;;;;;;5.13;4.65;;;;;;;;;;2088033;28;20029;-81
2022/09/25 05:59:52;;;;;;;4.63;4.20;;;;;;;;;;2089655;28;20474;-80
2022/09/25 06:01:12;;;;;;;4.30;4.10;;;;;;;;;;2087802;28;20123;-81
2022/09/25 06:02:32;;;;;;;4.22;3.92;;;;;;;;;;2089296;28;20025;-80
2022/09/25 06:03:51;;;;;;;6.43;5.28;;;;;;;;;;2083491;28;20965;-80
2022/09/25 06:05:10;;;;;;;8.88;5.60;;;;;;;;;;2084049;28;20029;-79
2022/09/25 06:06:30;;;;;;;7.25;6.55;;;;;;;;;;2086529;28;20021;-81
2022/09/25 06:07:53;;;;;;;6.22;5.72;;;;;;;;;;2089751;28;20029;-80
2022/09/25 06:09:12;;;;;;;6.25;5.80;;;;;;;;;;2087887;28;20024;-80
2022/09/25 06:10:31;;;;;;;6.75;6.07;;;;;;;;;;2088716;28;20017;-80
2022/09/25 06:11:52;;;;;;;5.95;5.32;;;;;;;;;;2086031;28;20089;-80
2022/09/25 06:13:11;;;;;;;4.50;4.22;;;;;;;;;;2087950;28;20041;-81
2022/09/25 06:14:30;;;;;;;5.60;4.93;;;;;;;;;;2089586;28;20033;-81
2022/09/25 06:15:51;;;;;;;5.65;5.10;;;;;;;;;;2089212;28;20045;-81
2022/09/25 06:17:11;;;;;;;5.40;5.00;;;;;;;;;;2087492;28;20037;-81
2022/09/25 06:18:30;;;;;;;5.80;5.38;;;;;;;;;;2085492;28;20314;-81
2022/09/25 06:19:49;;;;;;;5.80;5.40;;;;;;;;;;2087458;28;20032;-81
2022/09/25 06:21:07;;;;;;;6.47;5.90;;;;;;;;;;2086987;28;20509;-83
2022/09/25 06:22:26;;;;;;;5.85;5.35;;;;;;;;;;2084504;28;20565;-82
2022/09/25 06:23:45;;;;;;;6.03;5.15;;;;;;;;;;2086042;28;20028;-83
2022/09/25 06:25:04;;;;;;;5.00;4.60;;;;;;;;;;2085013;28;20033;-81
2022/09/25 06:26:24;;;;;;;5.18;4.70;;;;;;;;;;2081427;28;20053;-81
2022/09/25 06:27:43;;;;;;;4.45;3.75;;;;;;;;;;2085005;28;20033;-82
2022/09/25 06:29:02;;;;;;;4.10;3.80;;;;;;;;;;2090316;28;20013;-81
2022/09/25 06:30:22;;;;;;;5.35;4.07;;;;;;;;;;2089225;28;20100;-81
2022/09/25 06:31:41;;;;;;;7.85;4.03;;;;;;;;;;2091590;28;20057;-82
2022/09/25 06:33:01;;;;;;;3.67;3.47;;;;;;;;;;2085075;28;20037;-80
2022/09/25 06:34:21;;;;;;;4.07;2.97;;;;;;;;;;2085353;28;20028;-80
2022/09/25 06:35:44;;;;;;;3.47;3.17;;;;;;;;;;2084953;28;20025;-81
2022/09/25 06:37:03;;;;;;;5.60;3.38;;;;;;;;;;2088722;28;20025;-81
2022/09/25 06:38:22;;;;;;;4.28;3.97;;;;;;;;;;2090229;28;20497;-81
2022/09/25 06:39:41;;;;;;;4.85;3.95;;;;;;;;;;2086262;28;20044;-81
2022/09/25 06:41:00;;;;;;;4.55;4.25;;;;;;;;;;2087450;28;20067;-81
2022/09/25 06:42:19;;;;;;;4.57;4.18;;;;;;;;;;2083938;28;20025;-81
2022/09/25 06:43:38;;;;;;;5.30;4.90;;;;;;;;;;2088589;28;20041;-82
2022/09/25 06:44:57;;;;;;;4.60;4.30;;;;;;;;;;2090263;28;20025;-82
2022/09/25 06:46:17;;;;;;;4.88;4.47;;;;;;;;;;2091057;28;20052;-82
2022/09/25 06:47:35;;;;;;;5.03;4.63;;;;;;;;;;2085835;28;20033;-81
2022/09/25 06:48:56;;;;;;;4.45;4.03;;;;;;;;;;2087583;28;20098;-81
2022/09/25 06:50:15;;;;;;;4.20;3.90;;;;;;;;;;2088332;28;20144;-81
2022/09/25 06:51:34;;;;;;;5.43;4.40;;;;;;;;;;2087346;28;20032;-80
2022/09/25 06:52:53;;;;;;;5.05;3.70;;;;;;;;;;2087148;28;20034;-80
2022/09/25 06:54:11;;;;;;;3.67;3.05;;;;;;;;;;2087412;28;22044;-80
2022/09/25 06:55:31;;;;;;;3.58;3.17;;;;;;;;;;2088347;28;20025;-81
2022/09/25 06:56:50;;;;;;;2.80;2.58;;;;;;;;;;2085575;28;20029;-81
2022/09/25 06:58:09;;;;;;;3.30;3.03;;;;;;;;;;2085585;28;20086;-80
2022/09/25 06:59:28;;;;;;;3.20;2.97;;;;;;;;;;2086985;28;20025;-80
2022/09/25 07:00:48;;;;;;;2.97;2.78;;;;;;;;;;2085557;28;20490;-80
2022/09/25 07:03:47;;;;;;;3.35;2.63;;;;;;;;;;2088342;28;20022;-81
2022/09/25 07:05:06;;;;;;;2.70;2.50;;;;;;;;;;2088119;28;20111;-80
2022/09/25 07:06:27;;;;;;;2.63;2.42;;;;;;;;;;2087708;28;20033;-82
2022/09/25 07:07:47;;;;;;;3.00;2.80;;;;;;;;;;2086086;28;20064;-80
2022/09/25 07:09:06;;;;;;;4.75;2.58;;;;;;;;;;2084283;28;20104;-80
2022/09/25 07:10:25;;;;;;;3.55;2.33;;;;;;;;;;2089314;28;20025;-84
2022/09/25 07:11:46;;;;;;;2.75;2.55;;;;;;;;;;2089109;28;20029;-83
2022/09/25 07:13:05;;;;;;;4.85;2.55;;;;;;;;;;2086579;28;20100;-84
2022/09/25 07:14:24;;;;;;;2.95;2.75;;;;;;;;;;2088697;28;20060;-81
2022/09/25 07:15:49;;;;;;;2.83;2.42;;;;;;;;;;2095169;28;20032;-82
2022/09/25 07:17:08;;;;;;;2.67;2.28;;;;;;;;;;2089053;28;20025;-84
2022/09/25 07:18:28;;;;;;;3.67;2.53;;;;;;;;;;2088063;28;20116;-82
2022/09/25 07:19:47;;;;;;;4.32;2.60;;;;;;;;;;2088226;28;20386;-83
2022/09/25 07:21:11;;;;;;;2.20;2.10;;;;;;;;;;2089320;28;20501;-86
2022/09/25 07:22:30;;;;;;;2.03;1.85;;;;;;;;;;2087932;28;20037;-82
2022/09/25 07:23:49;;;;;;;4.20;2.10;;;;;;;;;;2087744;28;20038;-84
2022/09/25 07:25:09;;;;;;;2.45;2.28;;;;;;;;;;2087087;28;20026;-81
2022/09/25 07:26:28;;;;;;;1.98;1.80;;;;;;;;;;2086111;28;20107;-80
2022/09/25 07:27:47;;;;;;;3.45;2.60;;;;;;;;;;2084349;28;20163;-78
2022/09/25 07:29:06;;;;;;;2.63;2.40;;;;;;;;;;2085757;28;20076;-80
2022/09/25 07:30:28;;;;;;;2.67;2.47;;;;;;;;;;2085017;28;20028;-82
2022/09/25 07:31:47;;;;;;;2.90;2.38;;;;;;;;;;2091868;28;20021;-79
2022/09/25 07:33:06;;;;;;;2.20;2.00;;;;;;;;;;2090715;28;20033;-79
2022/09/25 07:34:25;;;;;;;2.63;2.25;;;;;;;;;;2087016;28;20026;-81
2022/09/25 07:35:44;;;;;;;2.03;1.92;;;;;;;;;;2087665;28;20025;-79
2022/09/25 07:37:03;;;;;;;1.90;1.80;;;;;;;;;;2085124;28;20029;-79
2022/09/25 07:38:22;;;;;;;2.15;2.05;;;;;;;;;;2081942;28;20037;-79
2022/09/25 07:39:41;;;;;;;1.98;1.88;;;;;;;;;;2087178;28;20446;-80
2022/09/25 07:41:00;;;;;;;1.67;1.58;;;;;;;;;;2086561;28;20029;-80
2022/09/25 07:42:19;;;;;;;1.70;1.60;;;;;;;;;;2086885;28;20453;-79
2022/09/25 07:43:38;;;;;;;1.70;1.60;;;;;;;;;;2087359;28;20049;-79
2022/09/25 07:44:57;;;;;;;2.40;2.20;;;;;;;;;;2086800;28;20025;-79
2022/09/25 07:46:16;;;;;;;3.60;1.70;;;;;;;;;;2081226;28;20724;-79
2022/09/25 07:47:34;;;;;;;6.10;1.40;;;;;;;;;;2087593;28;20021;-79
2022/09/25 07:48:53;;;;;;;2.35;1.67;;;;;;;;;;2082040;28;20499;-82
2022/09/25 07:50:12;;;;;;;2.95;1.70;;;;;;;;;;2085403;28;20399;-79
2022/09/25 07:51:31;;;;;;;1.85;1.70;;;;;;;;;;2087187;28;20037;-80
2022/09/25 07:52:51;;;;;;;2.50;1.60;;;;;;;;;;2087111;28;20025;-80
2022/09/25 07:54:10;;;;;;;2.90;1.80;;;;;;;;;;2088245;28;20112;-76
2022/09/25 07:55:29;;;;;;;1.80;1.63;;;;;;;;;;2087536;28;20107;-79
2022/09/25 07:56:48;;;;;;;2.10;1.77;;;;;;;;;;2085513;28;20041;-80
2022/09/25 07:58:07;;;;;;;1.80;1.70;;;;;;;;;;2086419;28;20036;-80
2022/09/25 07:59:26;;;;;;;3.00;1.30;;;;;;;;;;2085649;28;20433;-81
2022/09/25 08:00:45;;;;;;;4.70;1.70;;;;;;;;;;2085837;28;20029;-81
2022/09/25 08:02:04;;;;;;;2.83;1.65;;;;;;;;;;2088060;28;20496;-81
2022/09/25 08:03:23;;;;;;;2.17;1.40;;;;;;;;;;2087963;28;20037;-82
2022/09/25 08:04:42;;;;;;;2.45;1.42;;;;;;;;;;2088098;28;20026;-81
2022/09/25 08:06:02;;;;;;;1.40;1.30;;;;;;;;;;2085502;28;20029;-80
2022/09/25 08:07:21;;;;;;;1.90;1.63;;;;;;;;;;2083623;28;20502;-79
2022/09/25 08:08:41;;;;;;;1.30;1.20;;;;;;;;;;2087040;28;21367;-80
2022/09/25 08:10:00;;;;;;;1.88;1.52;;;;;;;;;;2085685;28;20033;-80
2022/09/25 08:11:19;;;;;;;3.88;2.40;;;;;;;;;;2089644;28;20041;-79
2022/09/25 08:12:39;;;;;;;2.75;2.08;;;;;;;;;;2082044;28;20690;-80
2022/09/25 08:13:59;;;;;;;2.47;2.28;;;;;;;;;;2083662;28;20064;-81
2022/09/25 08:15:18;;;;;;;2.72;2.50;;;;;;;;;;2089108;28;20032;-81